Decoded Metar for CBBC (BELLA BELLA in BC, CANADA) (IATA:N/A) | Meteo·Mobile Aviation Weather
aviador You're here:

CBBC Decoded Metar

BELLA BELLA in BC, CANADA
Report Time2018-08-19 04:00:00
UTC Time2018-08-19 04:28:19
Flight Rules vfr VFR
Wind290° at 04 kt
W.Decomp.*RWY 31: 3.0 kt HW 2.6 kt LCW
W.Rank290° ranks 13
Current wind is below 290° avg. (4.4)
Visibility9999 m
Phenomena:N/A
Clouds:N/A
Expected CloudBase > 3,200 ft AGL from Temp-Dew spread
CeilingNone
Temp19°C (ISA +4)
Dew Point11°C (60% RH)
AAT17.9°C
QNH1023 hPa
Density Alt482 ft
Elevation141 ft
Report Wrong Elevation
Raw Report
METAR CBBC 190400Z AUTO 29004KT 260V330 9SM CLR 19/11 A3020 RMK SLP227 DENSITY ALT 200FT=

Extra information for CBBC:More info

Metar Taf Metar & Taf Last 4 Metars F.Rules Stats Wind Profile Meteogram Temp Stats Airport Information Weather charts Add Link Nearby VenuesMetar ALERT Operation Metar Decoded Social comments